sensor_id;sensor_type;location;lat;lon;timestamp;temperature;humidity
2565;DHT22;1292;48.020;7.822;2023-05-10T05:48:00;14.50;99.90
2565;DHT22;1292;48.020;7.822;2023-05-10T05:50:26;14.40;99.90
2565;DHT22;1292;48.020;7.822;2023-05-10T05:52:53;14.40;99.90
2565;DHT22;1292;48.020;7.822;2023-05-10T05:55:20;14.30;99.90
2565;DHT22;1292;48.020;7.822;2023-05-10T05:57:47;14.30;99.90
2565;DHT22;1292;48.020;7.822;2023-05-10T06:00:17;14.20;99.90
2565;DHT22;1292;48.020;7.822;2023-05-10T06:02:44;14.30;99.90
2565;DHT22;1292;48.020;7.822;2023-05-10T06:05:13;14.30;99.90
2565;DHT22;1292;48.020;7.822;2023-05-10T06:07:40;14.30;99.90
2565;DHT22;1292;48.020;7.822;2023-05-10T06:10:07;14.30;99.90
2565;DHT22;1292;48.020;7.822;2023-05-10T06:12:34;14.30;99.90
2565;DHT22;1292;48.020;7.822;2023-05-10T06:15:01;14.30;99.90
2565;DHT22;1292;48.020;7.822;2023-05-10T06:17:28;14.30;99.90
2565;DHT22;1292;48.020;7.822;2023-05-10T06:19:55;14.30;99.90
2565;DHT22;1292;48.020;7.822;2023-05-10T06:22:23;14.20;99.90
2565;DHT22;1292;48.020;7.822;2023-05-10T06:24:50;14.20;99.90
2565;DHT22;1292;48.020;7.822;2023-05-10T06:27:17;14.30;99.90
2565;DHT22;1292;48.020;7.822;2023-05-10T06:29:44;14.30;99.90
2565;DHT22;1292;48.020;7.822;2023-05-10T06:32:11;14.30;99.90
2565;DHT22;1292;48.020;7.822;2023-05-10T06:34:37;14.20;99.90
2565;DHT22;1292;48.020;7.822;2023-05-10T06:37:04;14.20;99.90
2565;DHT22;1292;48.020;7.822;2023-05-10T06:39:32;14.30;99.90
2565;DHT22;1292;48.020;7.822;2023-05-10T06:41:59;14.30;99.90
2565;DHT22;1292;48.020;7.822;2023-05-10T06:44:27;14.40;99.90
2565;DHT22;1292;48.020;7.822;2023-05-10T06:46:54;14.40;99.90
2565;DHT22;1292;48.020;7.822;2023-05-10T06:49:21;14.40;99.90
2565;DHT22;1292;48.020;7.822;2023-05-10T06:51:49;14.50;99.90
2565;DHT22;1292;48.020;7.822;2023-05-10T06:54:16;14.40;99.90
2565;DHT22;1292;48.020;7.822;2023-05-10T06:56:44;14.50;99.90
2565;DHT22;1292;48.020;7.822;2023-05-10T06:59:11;14.50;99.90
2565;DHT22;1292;48.020;7.822;2023-05-10T07:01:38;14.60;99.90
2565;DHT22;1292;48.020;7.822;2023-05-10T07:04:05;14.60;99.90
2565;DHT22;1292;48.020;7.822;2023-05-10T07:06:33;14.70;99.90
2565;DHT22;1292;48.020;7.822;2023-05-10T07:09:00;14.60;99.90
2565;DHT22;1292;48.020;7.822;2023-05-10T07:11:26;14.70;99.90
2565;DHT22;1292;48.020;7.822;2023-05-10T07:13:54;14.80;99.90
2565;DHT22;1292;48.020;7.822;2023-05-10T07:16:21;14.80;99.90
2565;DHT22;1292;48.020;7.822;2023-05-10T07:18:48;14.80;99.90
2565;DHT22;1292;48.020;7.822;2023-05-10T07:21:15;14.90;99.90
2565;DHT22;1292;48.020;7.822;2023-05-10T07:23:42;14.90;99.90
2565;DHT22;1292;48.020;7.822;2023-05-10T07:26:09;14.90;99.90
2565;DHT22;1292;48.020;7.822;2023-05-10T07:28:36;15.00;99.90
2565;DHT22;1292;48.020;7.822;2023-05-10T07:31:05;15.10;99.90
2565;DHT22;1292;48.020;7.822;2023-05-10T07:33:32;15.10;99.90
2565;DHT22;1292;48.020;7.822;2023-05-10T07:35:59;15.10;99.90
2565;DHT22;1292;48.020;7.822;2023-05-10T07:38:26;15.10;99.90
2565;DHT22;1292;48.020;7.822;2023-05-10T07:40:52;15.00;99.90
2565;DHT22;1292;48.020;7.822;2023-05-10T07:43:19;15.00;99.90
2565;DHT22;1292;48.020;7.822;2023-05-10T07:45:46;15.00;99.90
2565;DHT22;1292;48.020;7.822;2023-05-10T07:48:14;15.00;99.90
2565;DHT22;1292;48.020;7.822;2023-05-10T07:50:41;15.10;99.90
2565;DHT22;1292;48.020;7.822;2023-05-10T07:53:08;15.20;99.90
2565;DHT22;1292;48.020;7.822;2023-05-10T07:55:35;15.30;99.90
2565;DHT22;1292;48.020;7.822;2023-05-10T07:58:02;15.40;99.90
2565;DHT22;1292;48.020;7.822;2023-05-10T08:00:29;15.50;99.90
2565;DHT22;1292;48.020;7.822;2023-05-10T08:02:56;15.60;99.90
2565;DHT22;1292;48.020;7.822;2023-05-10T08:05:24;15.60;99.90
2565;DHT22;1292;48.020;7.822;2023-05-10T08:07:51;15.70;99.90
2565;DHT22;1292;48.020;7.822;2023-05-10T08:10:18;15.60;99.90
2565;DHT22;1292;48.020;7.822;2023-05-10T08:12:45;15.70;99.90
2565;DHT22;1292;48.020;7.822;2023-05-10T08:15:12;15.70;99.90
2565;DHT22;1292;48.020;7.822;2023-05-10T08:17:38;15.70;99.90
2565;DHT22;1292;48.020;7.822;2023-05-10T08:20:06;15.60;99.90
2565;DHT22;1292;48.020;7.822;2023-05-10T08:22:35;15.70;99.90
2565;DHT22;1292;48.020;7.822;2023-05-10T08:25:02;15.80;99.90
2565;DHT22;1292;48.020;7.822;2023-05-10T08:27:28;15.80;99.90
2565;DHT22;1292;48.020;7.822;2023-05-10T08:29:55;15.80;99.90
2565;DHT22;1292;48.020;7.822;2023-05-10T08:32:22;15.80;99.90
2565;DHT22;1292;48.020;7.822;2023-05-10T08:34:49;15.80;99.90
2565;DHT22;1292;48.020;7.822;2023-05-10T08:37:15;15.90;99.90
2565;DHT22;1292;48.020;7.822;2023-05-10T08:39:44;16.00;99.90
2565;DHT22;1292;48.020;7.822;2023-05-10T08:42:16;16.10;99.90
2565;DHT22;1292;48.020;7.822;2023-05-10T08:44:43;16.30;99.90
2565;DHT22;1292;48.020;7.822;2023-05-10T08:47:11;16.50;99.90
2565;DHT22;1292;48.020;7.822;2023-05-10T08:49:40;16.60;99.90
2565;DHT22;1292;48.020;7.822;2023-05-10T08:52:08;16.70;99.90
2565;DHT22;1292;48.020;7.822;2023-05-10T08:54:37;16.80;99.90
2565;DHT22;1292;48.020;7.822;2023-05-10T08:57:05;17.10;99.90
2565;DHT22;1292;48.020;7.822;2023-05-10T08:59:33;17.50;99.90
2565;DHT22;1292;48.020;7.822;2023-05-10T09:01:59;17.50;99.90
2565;DHT22;1292;48.020;7.822;2023-05-10T09:04:27;17.80;99.90
2565;DHT22;1292;48.020;7.822;2023-05-10T09:06:54;18.00;99.90
2565;DHT22;1292;48.020;7.822;2023-05-10T09:09:21;17.90;99.90
2565;DHT22;1292;48.020;7.822;2023-05-10T09:11:49;17.70;99.90
2565;DHT22;1292;48.020;7.822;2023-05-10T09:14:18;17.30;99.90
2565;DHT22;1292;48.020;7.822;2023-05-10T09:16:46;17.00;99.90
2565;DHT22;1292;48.020;7.822;2023-05-10T09:19:14;16.80;99.90
2565;DHT22;1292;48.020;7.822;2023-05-10T09:21:41;16.60;99.90
2565;DHT22;1292;48.020;7.822;2023-05-10T09:24:08;16.30;99.90
2565;DHT22;1292;48.020;7.822;2023-05-10T09:26:35;16.30;99.90
2565;DHT22;1292;48.020;7.822;2023-05-10T09:29:12;16.20;99.90
2565;DHT22;1292;48.020;7.822;2023-05-10T09:31:48;16.10;99.90
2565;DHT22;1292;48.020;7.822;2023-05-10T09:34:17;15.70;99.90
2565;DHT22;1292;48.020;7.822;2023-05-10T09:36:56;15.70;99.90
2565;DHT22;1292;48.020;7.822;2023-05-10T09:39:30;15.70;99.90
2565;DHT22;1292;48.020;7.822;2023-05-10T09:41:58;15.80;99.90
2565;DHT22;1292;48.020;7.822;2023-05-10T09:44:26;15.90;99.90
2565;DHT22;1292;48.020;7.822;2023-05-10T09:46:54;16.00;99.90
2565;DHT22;1292;48.020;7.822;2023-05-10T09:49:21;16.00;99.90
2565;DHT22;1292;48.020;7.822;2023-05-10T09:52:00;16.20;99.90
2565;DHT22;1292;48.020;7.822;2023-05-10T09:54:27;16.60;99.90
2565;DHT22;1292;48.020;7.822;2023-05-10T09:56:54;16.80;99.90
2565;DHT22;1292;48.020;7.822;2023-05-10T09:59:21;17.10;99.90
2565;DHT22;1292;48.020;7.822;2023-05-10T10:01:51;17.20;99.90
2565;DHT22;1292;48.020;7.822;2023-05-10T10:04:20;17.20;99.90
2565;DHT22;1292;48.020;7.822;2023-05-10T10:06:58;17.20;99.90
2565;DHT22;1292;48.020;7.822;2023-05-10T10:09:26;17.20;99.90
2565;DHT22;1292;48.020;7.822;2023-05-10T10:11:54;17.40;99.90
2565;DHT22;1292;48.020;7.822;2023-05-10T10:14:22;17.60;99.90
2565;DHT22;1292;48.020;7.822;2023-05-10T10:16:49;17.80;99.90
2565;DHT22;1292;48.020;7.822;2023-05-10T10:19:16;17.90;99.90
2565;DHT22;1292;48.020;7.822;2023-05-10T10:21:44;17.80;99.90
2565;DHT22;1292;48.020;7.822;2023-05-10T10:24:11;17.70;99.90
2565;DHT22;1292;48.020;7.822;2023-05-10T10:26:39;17.80;99.90
2565;DHT22;1292;48.020;7.822;2023-05-10T10:29:14;17.80;99.90
2565;DHT22;1292;48.020;7.822;2023-05-10T10:31:47;17.90;99.90
2565;DHT22;1292;48.020;7.822;2023-05-10T10:34:24;17.90;99.90
2565;DHT22;1292;48.020;7.822;2023-05-10T10:36:54;17.80;99.90
2565;DHT22;1292;48.020;7.822;2023-05-10T10:39:22;17.60;99.90
2565;DHT22;1292;48.020;7.822;2023-05-10T10:41:51;17.80;99.90
2565;DHT22;1292;48.020;7.822;2023-05-10T10:44:37;17.90;99.90
2565;DHT22;1292;48.020;7.822;2023-05-10T10:47:21;18.10;99.90
2565;DHT22;1292;48.020;7.822;2023-05-10T10:49:51;18.20;99.90
2565;DHT22;1292;48.020;7.822;2023-05-10T10:52:25;18.30;99.90
2565;DHT22;1292;48.020;7.822;2023-05-10T10:54:59;18.50;99.90
2565;DHT22;1292;48.020;7.822;2023-05-10T10:57:27;18.40;99.90
2565;DHT22;1292;48.020;7.822;2023-05-10T11:00:20;18.40;99.90
2565;DHT22;1292;48.020;7.822;2023-05-10T11:02:49;18.30;99.90
2565;DHT22;1292;48.020;7.822;2023-05-10T11:05:43;18.10;99.90
2565;DHT22;1292;48.020;7.822;2023-05-10T11:08:17;18.30;99.90
2565;DHT22;1292;48.020;7.822;2023-05-10T11:10:53;18.50;99.90
2565;DHT22;1292;48.020;7.822;2023-05-10T11:13:30;18.60;99.90
2565;DHT22;1292;48.020;7.822;2023-05-10T11:15:57;18.70;99.90
2565;DHT22;1292;48.020;7.822;2023-05-10T11:18:26;18.70;99.90
2565;DHT22;1292;48.020;7.822;2023-05-10T11:20:57;18.70;99.90
2565;DHT22;1292;48.020;7.822;2023-05-10T11:23:30;18.70;99.90
2565;DHT22;1292;48.020;7.822;2023-05-10T11:25:57;18.40;99.90
2565;DHT22;1292;48.020;7.822;2023-05-10T11:28:24;18.30;99.90
2565;DHT22;1292;48.020;7.822;2023-05-10T11:30:52;18.10;99.90
2565;DHT22;1292;48.020;7.822;2023-05-10T11:33:20;18.00;99.90
2565;DHT22;1292;48.020;7.822;2023-05-10T11:35:46;18.00;99.90
2565;DHT22;1292;48.020;7.822;2023-05-10T11:38:14;17.90;99.90
2565;DHT22;1292;48.020;7.822;2023-05-10T11:40:42;17.90;99.90
2565;DHT22;1292;48.020;7.822;2023-05-10T11:43:09;17.80;99.90
2565;DHT22;1292;48.020;7.822;2023-05-10T11:45:41;17.80;99.90
2565;DHT22;1292;48.020;7.822;2023-05-10T11:48:08;17.70;99.90
2565;DHT22;1292;48.020;7.822;2023-05-10T11:50:35;17.70;99.90
2565;DHT22;1292;48.020;7.822;2023-05-10T11:53:01;17.70;99.90
2565;DHT22;1292;48.020;7.822;2023-05-10T11:55:28;17.70;99.90
2565;DHT22;1292;48.020;7.822;2023-05-10T11:58:01;17.80;99.90
2565;DHT22;1292;48.020;7.822;2023-05-10T12:00:29;17.80;99.90
2565;DHT22;1292;48.020;7.822;2023-05-10T12:02:56;17.80;99.90
2565;DHT22;1292;48.020;7.822;2023-05-10T12:05:24;17.80;99.90
2565;DHT22;1292;48.020;7.822;2023-05-10T12:08:12;17.80;99.90
2565;DHT22;1292;48.020;7.822;2023-05-10T12:10:45;17.90;99.90
2565;DHT22;1292;48.020;7.822;2023-05-10T12:13:13;17.90;99.90
2565;DHT22;1292;48.020;7.822;2023-05-10T12:15:41;17.90;99.90
2565;DHT22;1292;48.020;7.822;2023-05-10T12:18:08;17.80;99.90
2565;DHT22;1292;48.020;7.822;2023-05-10T12:20:36;17.70;99.90
2565;DHT22;1292;48.020;7.822;2023-05-10T12:23:03;17.70;99.90
2565;DHT22;1292;48.020;7.822;2023-05-10T12:25:32;17.50;99.90
2565;DHT22;1292;48.020;7.822;2023-05-10T12:28:02;17.40;99.90
2565;DHT22;1292;48.020;7.822;2023-05-10T12:30:32;16.90;99.90
2565;DHT22;1292;48.020;7.822;2023-05-10T12:33:00;16.70;99.90
2565;DHT22;1292;48.020;7.822;2023-05-10T12:35:30;16.80;99.90
2565;DHT22;1292;48.020;7.822;2023-05-10T12:37:57;16.70;99.90
2565;DHT22;1292;48.020;7.822;2023-05-10T12:40:24;16.80;99.90
2565;DHT22;1292;48.020;7.822;2023-05-10T12:42:51;16.60;99.90
2565;DHT22;1292;48.020;7.822;2023-05-10T12:45:18;16.50;99.90
2565;DHT22;1292;48.020;7.822;2023-05-10T12:47:47;16.30;99.90
2565;DHT22;1292;48.020;7.822;2023-05-10T12:50:13;16.20;99.90
2565;DHT22;1292;48.020;7.822;2023-05-10T12:52:40;16.10;99.90
2565;DHT22;1292;48.020;7.822;2023-05-10T12:55:07;16.20;99.90
2565;DHT22;1292;48.020;7.822;2023-05-10T12:57:34;16.20;99.90
2565;DHT22;1292;48.020;7.822;2023-05-10T13:00:01;16.20;99.90
2565;DHT22;1292;48.020;7.822;2023-05-10T13:02:30;16.20;99.90
2565;DHT22;1292;48.020;7.822;2023-05-10T13:04:58;16.30;99.90
2565;DHT22;1292;48.020;7.822;2023-05-10T13:07:25;16.40;99.90
2565;DHT22;1292;48.020;7.822;2023-05-10T13:09:52;16.50;99.90
2565;DHT22;1292;48.020;7.822;2023-05-10T13:12:19;16.60;99.90
2565;DHT22;1292;48.020;7.822;2023-05-10T13:14:46;16.70;99.90
2565;DHT22;1292;48.020;7.822;2023-05-10T13:17:12;16.70;99.90
2565;DHT22;1292;48.020;7.822;2023-05-10T13:19:39;16.80;99.90
2565;DHT22;1292;48.020;7.822;2023-05-10T13:22:07;16.80;99.90
2565;DHT22;1292;48.020;7.822;2023-05-10T13:24:34;16.70;99.90
2565;DHT22;1292;48.020;7.822;2023-05-10T13:27:01;16.40;99.90
2565;DHT22;1292;48.020;7.822;2023-05-10T13:29:28;16.30;99.90
2565;DHT22;1292;48.020;7.822;2023-05-10T13:31:54;16.30;99.90
2565;DHT22;1292;48.020;7.822;2023-05-10T13:34:21;16.40;99.90
2565;DHT22;1292;48.020;7.822;2023-05-10T13:36:49;16.50;99.90
2565;DHT22;1292;48.020;7.822;2023-05-10T13:39:17;16.60;99.90
2565;DHT22;1292;48.020;7.822;2023-05-10T13:41:44;16.80;99.90
2565;DHT22;1292;48.020;7.822;2023-05-10T13:44:12;17.00;99.90
2565;DHT22;1292;48.020;7.822;2023-05-10T13:46:39;17.20;99.90
2565;DHT22;1292;48.020;7.822;2023-05-10T13:49:06;17.30;99.90
2565;DHT22;1292;48.020;7.822;2023-05-10T13:51:36;17.30;99.90
2565;DHT22;1292;48.020;7.822;2023-05-10T13:54:03;17.40;99.90
2565;DHT22;1292;48.020;7.822;2023-05-10T13:56:31;17.40;99.90
2565;DHT22;1292;48.020;7.822;2023-05-10T13:58:59;17.40;99.90
2565;DHT22;1292;48.020;7.822;2023-05-10T14:01:26;17.30;99.90
2565;DHT22;1292;48.020;7.822;2023-05-10T14:03:53;17.40;99.90
2565;DHT22;1292;48.020;7.822;2023-05-10T14:06:20;17.40;99.90
2565;DHT22;1292;48.020;7.822;2023-05-10T14:08:47;17.30;99.90
2565;DHT22;1292;48.020;7.822;2023-05-10T14:11:14;17.30;99.90
2565;DHT22;1292;48.020;7.822;2023-05-10T14:13:42;17.40;99.90
2565;DHT22;1292;48.020;7.822;2023-05-10T14:16:09;17.50;99.90
2565;DHT22;1292;48.020;7.822;2023-05-10T14:18:37;17.60;99.90
2565;DHT22;1292;48.020;7.822;2023-05-10T14:21:04;17.60;99.90
2565;DHT22;1292;48.020;7.822;2023-05-10T14:23:30;17.60;99.90
2565;DHT22;1292;48.020;7.822;2023-05-10T14:25:57;17.60;99.90
2565;DHT22;1292;48.020;7.822;2023-05-10T14:28:24;17.70;99.90
2565;DHT22;1292;48.020;7.822;2023-05-10T14:30:53;17.70;99.90
2565;DHT22;1292;48.020;7.822;2023-05-10T14:33:20;17.70;99.90
2565;DHT22;1292;48.020;7.822;2023-05-10T14:35:47;17.70;99.90
2565;DHT22;1292;48.020;7.822;2023-05-10T14:38:14;17.60;99.90
2565;DHT22;1292;48.020;7.822;2023-05-10T14:40:41;17.50;99.90
2565;DHT22;1292;48.020;7.822;2023-05-10T14:43:08;17.50;99.90
2565;DHT22;1292;48.020;7.822;2023-05-10T14:45:35;17.50;99.90
2565;DHT22;1292;48.020;7.822;2023-05-10T14:48:03;17.50;99.90
2565;DHT22;1292;48.020;7.822;2023-05-10T14:50:31;17.70;99.90
2565;DHT22;1292;48.020;7.822;2023-05-10T14:52:58;17.80;99.90
2565;DHT22;1292;48.020;7.822;2023-05-10T14:55:25;17.90;99.90
2565;DHT22;1292;48.020;7.822;2023-05-10T14:57:53;18.00;99.90
2565;DHT22;1292;48.020;7.822;2023-05-10T15:00:21;18.20;99.90
2565;DHT22;1292;48.020;7.822;2023-05-10T15:02:48;18.50;99.90
2565;DHT22;1292;48.020;7.822;2023-05-10T15:05:16;18.70;99.90
2565;DHT22;1292;48.020;7.822;2023-05-10T15:07:43;18.80;99.90
2565;DHT22;1292;48.020;7.822;2023-05-10T15:10:10;19.10;99.90
2565;DHT22;1292;48.020;7.822;2023-05-10T15:12:38;19.10;99.90
2565;DHT22;1292;48.020;7.822;2023-05-10T15:15:06;19.10;99.90
2565;DHT22;1292;48.020;7.822;2023-05-10T15:17:33;19.00;99.90
2565;DHT22;1292;48.020;7.822;2023-05-10T15:20:00;18.90;99.90
2565;DHT22;1292;48.020;7.822;2023-05-10T15:22:30;18.80;99.90
2565;DHT22;1292;48.020;7.822;2023-05-10T15:24:57;18.50;99.90
2565;DHT22;1292;48.020;7.822;2023-05-10T15:27:24;18.30;99.90
2565;DHT22;1292;48.020;7.822;2023-05-10T15:29:51;18.20;99.90
2565;DHT22;1292;48.020;7.822;2023-05-10T15:32:17;18.20;99.90
2565;DHT22;1292;48.020;7.822;2023-05-10T15:34:44;18.40;99.90
2565;DHT22;1292;48.020;7.822;2023-05-10T15:37:11;18.50;99.90
2565;DHT22;1292;48.020;7.822;2023-05-10T15:39:40;18.80;99.90
2565;DHT22;1292;48.020;7.822;2023-05-10T15:42:07;18.90;99.90
2565;DHT22;1292;48.020;7.822;2023-05-10T15:44:34;18.80;99.90
2565;DHT22;1292;48.020;7.822;2023-05-10T15:47:04;18.90;99.90
2565;DHT22;1292;48.020;7.822;2023-05-10T15:49:31;18.90;99.90
2565;DHT22;1292;48.020;7.822;2023-05-10T15:51:58;18.90;99.90
2565;DHT22;1292;48.020;7.822;2023-05-10T15:54:25;19.00;99.90
2565;DHT22;1292;48.020;7.822;2023-05-10T15:56:53;19.10;99.90
2565;DHT22;1292;48.020;7.822;2023-05-10T15:59:20;19.00;99.90
2565;DHT22;1292;48.020;7.822;2023-05-10T16:01:47;18.90;99.90
2565;DHT22;1292;48.020;7.822;2023-05-10T16:04:14;18.90;99.90
2565;DHT22;1292;48.020;7.822;2023-05-10T16:06:41;18.90;99.90
2565;DHT22;1292;48.020;7.822;2023-05-10T16:09:08;18.90;99.90
2565;DHT22;1292;48.020;7.822;2023-05-10T16:11:35;18.70;99.90
2565;DHT22;1292;48.020;7.822;2023-05-10T16:14:03;18.50;99.90
2565;DHT22;1292;48.020;7.822;2023-05-10T16:16:31;18.20;99.90
2565;DHT22;1292;48.020;7.822;2023-05-10T16:18:58;18.10;99.90
2565;DHT22;1292;48.020;7.822;2023-05-10T16:21:26;18.10;99.90
2565;DHT22;1292;48.020;7.822;2023-05-10T16:23:53;17.90;99.90
2565;DHT22;1292;48.020;7.822;2023-05-10T16:26:20;17.80;99.90
2565;DHT22;1292;48.020;7.822;2023-05-10T16:28:47;17.70;99.90
2565;DHT22;1292;48.020;7.822;2023-05-10T16:31:16;17.40;99.90
2565;DHT22;1292;48.020;7.822;2023-05-10T16:33:44;17.20;99.90
2565;DHT22;1292;48.020;7.822;2023-05-10T16:36:11;16.90;99.90
2565;DHT22;1292;48.020;7.822;2023-05-10T16:38:38;16.70;99.90
2565;DHT22;1292;48.020;7.822;2023-05-10T16:41:06;16.60;99.90
2565;DHT22;1292;48.020;7.822;2023-05-10T16:43:33;16.70;99.90
2565;DHT22;1292;48.020;7.822;2023-05-10T16:46:00;16.60;99.90
2565;DHT22;1292;48.020;7.822;2023-05-10T16:48:28;16.50;99.90
2565;DHT22;1292;48.020;7.822;2023-05-10T16:50:55;16.50;99.90
2565;DHT22;1292;48.020;7.822;2023-05-10T16:53:23;16.20;99.90
2565;DHT22;1292;48.020;7.822;2023-05-10T16:55:50;16.40;99.90
2565;DHT22;1292;48.020;7.822;2023-05-10T16:58:17;16.60;99.90
2565;DHT22;1292;48.020;7.822;2023-05-10T17:00:44;16.60;99.90
2565;DHT22;1292;48.020;7.822;2023-05-10T17:03:11;16.60;99.90
2565;DHT22;1292;48.020;7.822;2023-05-10T17:06:01;16.70;99.90
2565;DHT22;1292;48.020;7.822;2023-05-10T17:08:28;16.60;99.90
2565;DHT22;1292;48.020;7.822;2023-05-10T17:10:55;16.60;99.90
2565;DHT22;1292;48.020;7.822;2023-05-10T17:13:22;16.60;99.90
2565;DHT22;1292;48.020;7.822;2023-05-10T17:15:49;16.40;99.90
2565;DHT22;1292;48.020;7.822;2023-05-10T17:18:16;16.40;99.90
2565;DHT22;1292;48.020;7.822;2023-05-10T17:20:44;16.40;99.90
2565;DHT22;1292;48.020;7.822;2023-05-10T17:23:12;16.30;99.90
2565;DHT22;1292;48.020;7.822;2023-05-10T17:25:39;16.30;99.90
2565;DHT22;1292;48.020;7.822;2023-05-10T17:28:06;16.30;99.90
2565;DHT22;1292;48.020;7.822;2023-05-10T17:30:33;16.30;99.90
2565;DHT22;1292;48.020;7.822;2023-05-10T17:33:00;16.40;99.90
2565;DHT22;1292;48.020;7.822;2023-05-10T17:35:28;16.40;99.90
2565;DHT22;1292;48.020;7.822;2023-05-10T17:37:55;16.40;99.90
2565;DHT22;1292;48.020;7.822;2023-05-10T17:40:24;16.20;99.90
2565;DHT22;1292;48.020;7.822;2023-05-10T17:42:51;16.10;99.90
2565;DHT22;1292;48.020;7.822;2023-05-10T17:45:18;15.90;99.90
2565;DHT22;1292;48.020;7.822;2023-05-10T17:47:46;15.80;99.90
2565;DHT22;1292;48.020;7.822;2023-05-10T17:50:14;15.80;99.90
2565;DHT22;1292;48.020;7.822;2023-05-10T17:52:41;15.80;99.90
2565;DHT22;1292;48.020;7.822;2023-05-10T17:55:09;15.90;99.90
2565;DHT22;1292;48.020;7.822;2023-05-10T17:57:38;15.80;99.90
2565;DHT22;1292;48.020;7.822;2023-05-10T18:00:08;15.90;99.90
2565;DHT22;1292;48.020;7.822;2023-05-10T18:02:35;15.80;99.90
2565;DHT22;1292;48.020;7.822;2023-05-10T18:05:02;16.00;99.90
2565;DHT22;1292;48.020;7.822;2023-05-10T18:07:29;16.10;99.90
2565;DHT22;1292;48.020;7.822;2023-05-10T18:09:56;16.20;99.90
2565;DHT22;1292;48.020;7.822;2023-05-10T18:12:24;16.20;99.90
2565;DHT22;1292;48.020;7.822;2023-05-10T18:14:52;16.20;99.90
2565;DHT22;1292;48.020;7.822;2023-05-10T18:17:20;16.20;99.90
2565;DHT22;1292;48.020;7.822;2023-05-10T18:19:46;16.00;99.90
2565;DHT22;1292;48.020;7.822;2023-05-10T18:22:13;16.00;99.90
2565;DHT22;1292;48.020;7.822;2023-05-10T18:24:40;16.00;99.90
2565;DHT22;1292;48.020;7.822;2023-05-10T18:27:07;16.00;99.90
2565;DHT22;1292;48.020;7.822;2023-05-10T18:29:35;16.00;99.90
2565;DHT22;1292;48.020;7.822;2023-05-10T18:32:03;16.00;99.90
2565;DHT22;1292;48.020;7.822;2023-05-10T18:34:30;16.00;99.90
2565;DHT22;1292;48.020;7.822;2023-05-10T18:36:57;15.80;99.90
2565;DHT22;1292;48.020;7.822;2023-05-10T18:39:24;15.70;99.90
2565;DHT22;1292;48.020;7.822;2023-05-10T18:41:51;15.80;99.90
2565;DHT22;1292;48.020;7.822;2023-05-10T18:44:18;15.80;99.90
2565;DHT22;1292;48.020;7.822;2023-05-10T18:46:46;15.80;99.90
2565;DHT22;1292;48.020;7.822;2023-05-10T18:49:14;15.80;99.90
2565;DHT22;1292;48.020;7.822;2023-05-10T18:51:41;15.70;99.90
2565;DHT22;1292;48.020;7.822;2023-05-10T18:54:08;15.70;99.90
2565;DHT22;1292;48.020;7.822;2023-05-10T18:56:35;15.60;99.90
2565;DHT22;1292;48.020;7.822;2023-05-10T18:59:04;15.50;99.90
2565;DHT22;1292;48.020;7.822;2023-05-10T19:01:31;15.50;99.90
2565;DHT22;1292;48.020;7.822;2023-05-10T19:03:57;15.50;99.90
2565;DHT22;1292;48.020;7.822;2023-05-10T19:06:25;15.50;99.90
2565;DHT22;1292;48.020;7.822;2023-05-10T19:08:52;15.30;99.90
2565;DHT22;1292;48.020;7.822;2023-05-10T19:11:19;15.30;99.90
2565;DHT22;1292;48.020;7.822;2023-05-10T19:13:46;15.40;99.90
2565;DHT22;1292;48.020;7.822;2023-05-10T19:16:14;15.30;99.90
2565;DHT22;1292;48.020;7.822;2023-05-10T19:18:42;15.30;99.90
2565;DHT22;1292;48.020;7.822;2023-05-10T19:21:09;15.30;99.90
2565;DHT22;1292;48.020;7.822;2023-05-10T19:23:37;15.20;99.90
2565;DHT22;1292;48.020;7.822;2023-05-10T19:26:06;15.30;99.90
2565;DHT22;1292;48.020;7.822;2023-05-10T19:28:34;15.20;99.90
2565;DHT22;1292;48.020;7.822;2023-05-10T19:31:01;15.10;99.90
2565;DHT22;1292;48.020;7.822;2023-05-10T19:33:28;15.00;99.90
2565;DHT22;1292;48.020;7.822;2023-05-10T19:35:55;15.00;99.90
2565;DHT22;1292;48.020;7.822;2023-05-10T19:38:22;15.00;99.90
2565;DHT22;1292;48.020;7.822;2023-05-10T19:40:50;15.00;99.90
2565;DHT22;1292;48.020;7.822;2023-05-10T19:43:22;15.00;99.90
2565;DHT22;1292;48.020;7.822;2023-05-10T19:45:48;15.10;99.90
2565;DHT22;1292;48.020;7.822;2023-05-10T19:48:15;15.00;99.90
2565;DHT22;1292;48.020;7.822;2023-05-10T19:50:42;15.00;99.90
2565;DHT22;1292;48.020;7.822;2023-05-10T19:53:09;15.00;99.90
2565;DHT22;1292;48.020;7.822;2023-05-10T19:55:36;15.00;99.90
2565;DHT22;1292;48.020;7.822;2023-05-10T19:58:04;15.00;99.90
2565;DHT22;1292;48.020;7.822;2023-05-10T20:00:31;15.00;99.90
2565;DHT22;1292;48.020;7.822;2023-05-10T20:02:58;15.00;99.90
2565;DHT22;1292;48.020;7.822;2023-05-10T20:05:25;15.00;99.90
2565;DHT22;1292;48.020;7.822;2023-05-10T20:07:52;15.10;99.90
2565;DHT22;1292;48.020;7.822;2023-05-10T20:10:19;15.00;99.90
2565;DHT22;1292;48.020;7.822;2023-05-10T20:12:48;14.90;99.90
2565;DHT22;1292;48.020;7.822;2023-05-10T20:15:17;15.00;99.90
2565;DHT22;1292;48.020;7.822;2023-05-10T20:17:45;15.00;99.90
2565;DHT22;1292;48.020;7.822;2023-05-10T20:20:13;15.00;99.90
2565;DHT22;1292;48.020;7.822;2023-05-10T20:22:41;15.00;99.90
2565;DHT22;1292;48.020;7.822;2023-05-10T20:25:08;15.00;99.90
2565;DHT22;1292;48.020;7.822;2023-05-10T20:27:35;15.00;99.90
2565;DHT22;1292;48.020;7.822;2023-05-10T20:30:02;14.90;99.90
2565;DHT22;1292;48.020;7.822;2023-05-10T20:32:32;14.90;99.90
2565;DHT22;1292;48.020;7.822;2023-05-10T20:35:00;14.90;99.90
2565;DHT22;1292;48.020;7.822;2023-05-10T20:37:27;14.80;99.90
2565;DHT22;1292;48.020;7.822;2023-05-10T20:39:55;14.70;99.90
2565;DHT22;1292;48.020;7.822;2023-05-10T20:42:22;14.60;99.90
2565;DHT22;1292;48.020;7.822;2023-05-10T20:44:49;14.60;99.90
2565;DHT22;1292;48.020;7.822;2023-05-10T20:47:16;14.60;99.90
2565;DHT22;1292;48.020;7.822;2023-05-10T20:49:45;14.50;99.90
2565;DHT22;1292;48.020;7.822;2023-05-10T20:52:12;14.40;99.90
2565;DHT22;1292;48.020;7.822;2023-05-10T20:54:39;14.40;99.90
2565;DHT22;1292;48.020;7.822;2023-05-10T20:57:06;14.50;99.90
2565;DHT22;1292;48.020;7.822;2023-05-10T20:59:33;14.50;99.90
2565;DHT22;1292;48.020;7.822;2023-05-10T21:02:00;14.50;99.90
2565;DHT22;1292;48.020;7.822;2023-05-10T21:04:28;14.40;99.90
2565;DHT22;1292;48.020;7.822;2023-05-10T21:06:56;14.40;99.90
2565;DHT22;1292;48.020;7.822;2023-05-10T21:09:23;14.40;99.90
2565;DHT22;1292;48.020;7.822;2023-05-10T21:11:50;14.40;99.90
2565;DHT22;1292;48.020;7.822;2023-05-10T21:14:17;14.40;99.90
2565;DHT22;1292;48.020;7.822;2023-05-10T21:16:44;14.40;99.90
2565;DHT22;1292;48.020;7.822;2023-05-10T21:19:11;14.40;99.90
2565;DHT22;1292;48.020;7.822;2023-05-10T21:21:38;14.40;99.90
2565;DHT22;1292;48.020;7.822;2023-05-10T21:24:06;14.40;99.90
2565;DHT22;1292;48.020;7.822;2023-05-10T21:26:34;14.30;99.90
2565;DHT22;1292;48.020;7.822;2023-05-10T21:29:01;14.30;99.90
2565;DHT22;1292;48.020;7.822;2023-05-10T21:31:29;14.30;99.90
2565;DHT22;1292;48.020;7.822;2023-05-10T21:33:56;14.30;99.90
2565;DHT22;1292;48.020;7.822;2023-05-10T21:36:23;14.20;99.90
2565;DHT22;1292;48.020;7.822;2023-05-10T21:38:50;14.20;99.90
